Ampthill, Virginia
Current Conditions -  °F | °C
As of 1:54 PM on Thursday 23 Oct 2014 (Local Time) from KRIC Reporting Station
Scattered Clouds Scattered Clouds  
Wind Chill: 20°   Ceiling: Unl
Heat Index: 20°   Visibility: 10mi
Dew Point:   Wind: 14mph
Humidity: 43%   Direction: 330°NNW
Pressure: 29.87"   Gusts: 25mph
Location:  37.4513°N, 77.4708°W
Report Text: KRIC 231754Z 33012G22KT 10SM SCT045 20/07 A2987 RMK AO2 SLP121 T02000072 10200 20111 58017
Loading
Personal Weather Stations






























Interactive Weather Map
Tropical Storm Tracking
New forecast layout! Learn more

10-Day Weather Forecast

Advertisements
Track Severe Weather on mobile